Time;durP1;ratioP1;P1;durP2;ratioP2;P2;SDS_P1;SDS_P2;PMS_P1;PMS_P2;Temp;Humidity;BMP_temperature;BMP_pressure;BME280_temperature;BME280_humidity;BME280_pressure;Samples;Min_cycle;Max_cycle;Signal;HPM_P1;HPM_P2
2023/02/04 00:01:03;;;;;;;37.67;5.03;;;;;;;7.17;100.00;102993.47;5050172;28;20044;-70
2023/02/04 00:03:28;;;;;;;47.88;4.93;;;;;;;7.20;100.00;102986.75;5046661;28;20029;-69
2023/02/04 00:05:54;;;;;;;36.38;4.63;;;;;;;7.23;100.00;102991.25;5052844;28;20078;-70
2023/02/04 00:08:19;;;;;;;35.17;4.20;;;;;;;7.28;100.00;102989.84;5049322;28;20045;-69
2023/02/04 00:10:45;;;;;;;30.38;4.32;;;;;;;7.29;100.00;102986.41;5046164;28;20080;-70
2023/02/04 00:13:11;;;;;;;39.05;3.88;;;;;;;7.31;100.00;102995.28;5052333;28;20071;-69
2023/02/04 00:15:36;;;;;;;28.70;3.65;;;;;;;7.32;100.00;103001.44;5047951;28;20465;-70
2023/02/04 00:18:02;;;;;;;43.67;4.72;;;;;;;7.29;100.00;103010.00;5058860;28;20148;-69
2023/02/04 00:20:27;;;;;;;32.47;4.72;;;;;;;7.29;100.00;103001.25;5050421;28;20438;-70
2023/02/04 00:22:52;;;;;;;30.42;4.13;;;;;;;7.18;100.00;103000.53;5057085;28;20043;-69
2023/02/04 00:25:18;;;;;;;38.55;5.50;;;;;;;7.16;100.00;103000.44;5051829;28;20029;-70
2023/02/04 00:27:43;;;;;;;29.15;3.85;;;;;;;7.16;100.00;102999.50;5066656;28;20032;-70
2023/02/04 00:30:09;;;;;;;34.00;4.82;;;;;;;7.22;100.00;102992.06;5046827;28;20021;-70
2023/02/04 00:32:34;;;;;;;36.35;4.40;;;;;;;7.23;100.00;103001.72;5032904;28;20362;-69
2023/02/04 00:35:03;;;;;;;35.58;4.57;;;;;;;7.31;100.00;102995.28;5053966;28;20111;-69
2023/02/04 00:37:29;;;;;;;41.50;5.53;;;;;;;7.33;100.00;103003.25;5047694;28;20028;-70
2023/02/04 00:39:55;;;;;;;43.45;5.13;;;;;;;7.36;100.00;103009.56;5050718;28;20025;-70
2023/02/04 00:42:20;;;;;;;27.52;4.28;;;;;;;7.35;100.00;103014.72;5051907;28;20025;-71
2023/02/04 00:44:46;;;;;;;34.28;5.60;;;;;;;7.30;100.00;103003.94;5057057;28;20027;-69
2023/02/04 00:47:11;;;;;;;31.02;4.60;;;;;;;7.32;100.00;103004.94;5044005;28;20033;-69
2023/02/04 00:49:36;;;;;;;31.35;4.55;;;;;;;7.36;100.00;103004.31;5050422;28;20082;-70
2023/02/04 00:52:02;;;;;;;38.28;4.55;;;;;;;7.37;100.00;103015.72;5048771;28;20059;-68
2023/02/04 00:54:27;;;;;;;33.83;5.03;;;;;;;7.29;100.00;103016.94;5058840;28;20107;-70
2023/02/04 00:56:53;;;;;;;34.53;4.22;;;;;;;7.34;100.00;103015.50;5049209;28;20040;-69
2023/02/04 00:59:18;;;;;;;43.88;4.53;;;;;;;7.36;100.00;103009.56;5048472;28;20025;-69
2023/02/04 01:01:43;;;;;;;36.60;4.78;;;;;;;7.30;100.00;103003.94;5050515;28;20029;-69
2023/02/04 01:04:09;;;;;;;28.52;4.20;;;;;;;7.26;100.00;103013.31;5032913;28;20118;-69
2023/02/04 01:06:35;;;;;;;28.15;4.82;;;;;;;7.16;100.00;103010.91;5053142;28;20036;-68
2023/02/04 01:09:01;;;;;;;25.63;3.63;;;;;;;7.29;100.00;103012.59;5048976;28;20107;-69
2023/02/04 01:11:27;;;;;;;30.20;5.65;;;;;;;7.31;100.00;103018.88;5052801;28;20179;-69
2023/02/04 01:13:53;;;;;;;29.58;4.15;;;;;;;7.24;100.00;103008.78;5035053;28;20384;-69
2023/02/04 01:16:18;;;;;;;39.78;5.53;;;;;;;7.28;100.00;103010.78;5044233;28;20033;-71
2023/02/04 01:18:44;;;;;;;34.97;5.10;;;;;;;7.26;100.00;103018.53;5050533;28;20052;-70
2023/02/04 01:21:10;;;;;;;31.63;4.90;;;;;;;7.21;100.00;103009.47;5051116;28;20079;-69
2023/02/04 01:23:36;;;;;;;35.47;5.05;;;;;;;7.29;100.00;103017.84;5053604;28;20566;-68
2023/02/04 01:26:01;;;;;;;33.60;5.32;;;;;;;7.36;100.00;103019.16;5054440;28;20530;-69
2023/02/04 01:28:27;;;;;;;30.88;5.28;;;;;;;7.37;100.00;103016.63;5053161;28;20479;-70
2023/02/04 01:30:53;;;;;;;22.63;4.60;;;;;;;7.40;100.00;103024.66;5054742;28;20492;-70
2023/02/04 01:33:18;;;;;;;35.25;4.88;;;;;;;7.34;100.00;103031.22;5044260;28;20024;-69
2023/02/04 01:35:43;;;;;;;28.63;4.97;;;;;;;7.36;100.00;103034.88;5051939;28;20427;-71
2023/02/04 01:38:09;;;;;;;35.65;4.90;;;;;;;7.28;100.00;103030.84;5054896;28;20450;-69
2023/02/04 01:40:34;;;;;;;43.10;5.15;;;;;;;7.34;100.00;103042.63;5054915;28;20021;-70
2023/02/04 01:42:59;;;;;;;23.02;4.05;;;;;;;7.30;100.00;103045.84;5051914;28;20064;-69
2023/02/04 01:45:25;;;;;;;43.20;4.05;;;;;;;7.33;100.00;103050.38;5053707;28;20021;-70
2023/02/04 01:47:50;;;;;;;30.88;4.25;;;;;;;7.34;100.00;103047.88;5044398;28;20374;-69
2023/02/04 01:50:16;;;;;;;30.30;4.32;;;;;;;7.36;100.00;103059.34;5052716;28;20340;-68
2023/02/04 01:52:43;;;;;;;25.45;3.67;;;;;;;7.37;100.00;103058.53;5046682;28;20021;-67
2023/02/04 01:55:19;;;;;;;34.03;3.90;;;;;;;7.40;100.00;103052.59;5052987;28;20028;-68
2023/02/04 01:57:45;;;;;;;31.58;3.88;;;;;;;7.34;100.00;103053.09;5054432;28;20040;-69
2023/02/04 02:00:23;;;;;;;28.70;3.55;;;;;;;7.34;100.00;103062.66;5052579;28;20025;-68
2023/02/04 02:02:51;;;;;;;30.05;4.55;;;;;;;7.34;100.00;103063.56;5050058;28;20029;-71
2023/02/04 02:05:50;;;;;;;32.80;3.58;;;;;;;7.35;100.00;103070.63;5052414;28;20028;-69
2023/02/04 02:08:16;;;;;;;32.00;4.60;;;;;;;7.33;100.00;103061.75;5057711;28;20056;-69
2023/02/04 02:10:45;;;;;;;34.60;3.97;;;;;;;7.34;100.00;103057.41;5054343;28;20599;-68
2023/02/04 02:13:13;;;;;;;22.80;3.75;;;;;;;7.32;100.00;103065.19;5055501;28;20020;-69
2023/02/04 02:15:40;;;;;;;22.60;3.33;;;;;;;7.32;100.00;103065.19;5053568;28;20118;-68
2023/02/04 02:18:06;;;;;;;30.73;3.10;;;;;;;7.32;100.00;103069.53;5050425;28;20036;-68
2023/02/04 02:20:32;;;;;;;30.35;3.67;;;;;;;7.30;100.00;103072.03;5051594;28;20033;-69
2023/02/04 02:23:03;;;;;;;28.40;3.58;;;;;;;7.30;100.00;103066.81;5054212;28;20028;-69
2023/02/04 02:25:29;;;;;;;28.55;3.38;;;;;;;7.29;100.00;103072.84;5052740;28;20051;-68
2023/02/04 02:27:56;;;;;;;32.67;4.53;;;;;;;7.24;100.00;103069.00;5044685;28;20029;-70
2023/02/04 02:30:21;;;;;;;19.35;2.67;;;;;;;7.23;100.00;103072.41;5054914;28;20028;-69
2023/02/04 02:32:48;;;;;;;20.13;4.30;;;;;;;7.19;100.00;103071.34;5042907;28;20390;-68
2023/02/04 02:35:15;;;;;;;28.98;3.67;;;;;;;7.18;100.00;103076.47;5042046;28;20057;-69
2023/02/04 02:37:40;;;;;;;17.92;3.55;;;;;;;7.19;100.00;103078.25;5054187;28;20023;-69
2023/02/04 02:40:07;;;;;;;22.35;4.22;;;;;;;7.20;100.00;103085.31;5049422;28;20103;-69
2023/02/04 02:42:32;;;;;;;39.10;5.05;;;;;;;7.21;100.00;103087.13;5053271;28;20029;-69
2023/02/04 02:44:58;;;;;;;23.70;3.42;;;;;;;7.22;100.00;103089.84;5051167;28;20033;-70
2023/02/04 02:47:24;;;;;;;31.48;3.17;;;;;;;7.22;100.00;103083.72;5046509;28;20029;-70
2023/02/04 02:49:52;;;;;;;29.23;3.47;;;;;;;7.22;100.00;103086.34;5047141;28;20052;-69
2023/02/04 02:52:18;;;;;;;29.52;3.50;;;;;;;7.23;100.00;103088.13;5051086;28;20515;-69
2023/02/04 02:54:45;;;;;;;25.85;3.40;;;;;;;7.24;100.00;103090.88;5051620;28;20508;-69
2023/02/04 02:57:19;;;;;;;33.20;4.22;;;;;;;7.25;100.00;103084.81;5052608;28;20033;-70
2023/02/04 02:59:45;;;;;;;22.42;2.45;;;;;;;7.26;100.00;103085.75;5059372;28;20024;-71
2023/02/04 03:02:15;;;;;;;29.00;2.72;;;;;;;7.24;100.00;103087.34;5044577;28;20559;-69
2023/02/04 03:04:44;;;;;;;29.73;3.97;;;;;;;7.24;100.00;103087.34;5053616;28;20024;-69
2023/02/04 03:07:11;;;;;;;24.52;3.15;;;;;;;7.25;100.00;103095.28;5055325;28;20049;-69
2023/02/04 03:09:37;;;;;;;31.63;4.63;;;;;;;7.25;100.00;103095.28;5045897;28;20063;-70
2023/02/04 03:12:05;;;;;;;28.05;2.97;;;;;;;7.25;100.00;103090.06;5051641;28;20480;-70
2023/02/04 03:14:30;;;;;;;23.15;3.28;;;;;;;7.25;100.00;103099.63;5059024;28;20427;-68
2023/02/04 03:16:56;;;;;;;18.50;3.38;;;;;;;7.28;100.00;103094.59;5048555;28;20783;-69
2023/02/04 03:19:26;;;;;;;36.78;4.00;;;;;;;7.28;100.00;103091.06;5037051;28;20036;-69
2023/02/04 03:21:53;;;;;;;21.48;3.15;;;;;;;7.25;100.00;103095.28;5052831;28;20477;-70
2023/02/04 03:24:19;;;;;;;25.67;3.88;;;;;;;7.27;100.00;103092.81;5063939;28;20033;-70
2023/02/04 03:26:44;;;;;;;30.42;3.58;;;;;;;7.26;100.00;103090.97;5073427;28;20388;-70
2023/02/04 03:29:10;;;;;;;32.05;4.50;;;;;;;7.28;100.00;103096.31;5063300;28;20036;-69
2023/02/04 03:31:36;;;;;;;28.13;3.90;;;;;;;7.26;100.00;103098.84;5042370;28;21243;-69
2023/02/04 03:34:03;;;;;;;28.88;3.33;;;;;;;7.26;100.00;103093.59;5056633;28;20025;-69
2023/02/04 03:36:28;;;;;;;38.35;3.97;;;;;;;7.25;100.00;103090.06;5045379;28;20025;-69
2023/02/04 03:38:54;;;;;;;27.13;3.35;;;;;;;7.26;100.00;103097.09;5044433;28;20036;-69
2023/02/04 03:41:19;;;;;;;39.10;4.10;;;;;;;7.27;100.00;103090.19;5049203;28;20024;-68
2023/02/04 03:43:44;;;;;;;30.70;3.80;;;;;;;7.28;100.00;103085.84;5048923;28;20025;-69
2023/02/04 03:46:10;;;;;;;44.00;3.83;;;;;;;7.26;100.00;103088.34;5048541;28;20064;-69
2023/02/04 03:48:35;;;;;;;30.75;3.90;;;;;;;7.23;100.00;103082.91;5049727;28;20059;-70
2023/02/04 03:51:01;;;;;;;21.98;3.00;;;;;;;7.20;100.00;103090.56;5048944;28;20057;-68
2023/02/04 03:53:26;;;;;;;24.60;3.15;;;;;;;7.18;100.00;103086.94;5052750;28;20109;-70
2023/02/04 03:55:51;;;;;;;44.67;4.35;;;;;;;7.16;100.00;103088.53;5052132;28;20118;-68
2023/02/04 03:58:17;;;;;;;25.40;3.50;;;;;;;7.09;100.00;103082.91;5043178;28;20029;-69
2023/02/04 04:00:42;;;;;;;27.67;3.05;;;;;;;7.06;100.00;103082.69;5054421;28;20037;-69
2023/02/04 04:03:07;;;;;;;27.02;3.45;;;;;;;7.00;100.00;103079.66;5054282;28;20031;-69
2023/02/04 04:05:33;;;;;;;22.63;3.20;;;;;;;6.91;100.00;103071.19;5047839;28;20385;-69
2023/02/04 04:07:58;;;;;;;24.63;3.50;;;;;;;6.81;100.00;103071.34;5050297;28;20047;-71
2023/02/04 04:10:24;;;;;;;21.55;2.15;;;;;;;6.71;100.00;103075.97;5045651;28;20025;-70
2023/02/04 04:12:49;;;;;;;22.08;3.65;;;;;;;6.64;100.00;103076.34;5047407;28;20512;-68
2023/02/04 04:15:15;;;;;;;22.98;3.22;;;;;;;6.58;100.00;103086.41;5051024;28;20558;-70
2023/02/04 04:17:40;;;;;;;29.60;3.13;;;;;;;6.53;100.00;103087.78;5050845;28;21362;-69
2023/02/04 04:20:06;;;;;;;22.90;2.75;;;;;;;6.50;100.00;103092.81;5054109;28;20119;-71
2023/02/04 04:22:32;;;;;;;12.43;3.10;;;;;;;6.40;100.00;103097.41;5050575;28;20036;-69
2023/02/04 04:24:57;;;;;;;31.38;4.03;;;;;;;6.34;100.00;103102.19;5049797;28;20018;-69
2023/02/04 04:27:23;;;;;;;23.40;3.28;;;;;;;6.27;100.00;103099.03;5054351;28;20028;-69
2023/02/04 04:29:48;;;;;;;12.73;2.42;;;;;;;6.24;100.00;103104.97;5056297;28;20031;-70
2023/02/04 04:32:13;;;;;;;29.67;3.40;;;;;;;6.27;100.00;103114.72;5049679;28;20033;-70
2023/02/04 04:34:39;;;;;;;24.67;3.42;;;;;;;6.28;100.00;103120.09;5053863;28;20047;-69
2023/02/04 04:37:04;;;;;;;28.17;3.88;;;;;;;6.34;100.00;103123.09;5051446;28;20048;-69
2023/02/04 04:39:30;;;;;;;28.65;4.45;;;;;;;6.38;100.00;103119.00;5048629;28;20392;-68
2023/02/04 04:41:55;;;;;;;23.95;3.33;;;;;;;6.43;100.00;103132.41;5046433;28;20032;-69
2023/02/04 04:44:21;;;;;;;28.58;3.58;;;;;;;6.46;100.00;103130.00;5052765;28;20533;-69
2023/02/04 04:46:46;;;;;;;24.08;3.47;;;;;;;6.50;100.00;103129.44;5050854;28;20456;-68
2023/02/04 04:49:12;;;;;;;25.55;3.58;;;;;;;6.52;100.00;103133.06;5062455;28;20035;-68
2023/02/04 04:51:37;;;;;;;34.92;4.35;;;;;;;6.54;100.00;103126.25;5053888;28;20104;-69
2023/02/04 04:54:02;;;;;;;33.70;3.45;;;;;;;6.57;100.00;103123.81;5052709;28;20357;-70
2023/02/04 04:56:28;;;;;;;28.65;3.75;;;;;;;6.58;100.00;103130.88;5055750;28;20040;-70
2023/02/04 04:58:53;;;;;;;24.80;3.40;;;;;;;6.63;100.00;103134.69;5055311;28;20464;-69
2023/02/04 05:01:20;;;;;;;30.63;3.60;;;;;;;6.67;100.00;103143.69;5045321;28;20055;-70
2023/02/04 05:03:45;;;;;;;33.85;4.78;;;;;;;6.69;100.00;103127.28;5053951;28;20113;-69
2023/02/04 05:06:11;;;;;;;26.17;3.75;;;;;;;6.74;100.00;103141.59;5056370;28;20127;-68
2023/02/04 05:08:37;;;;;;;27.65;3.35;;;;;;;6.79;100.00;103148.88;5050717;28;20063;-69
2023/02/04 05:11:02;;;;;;;22.88;3.78;;;;;;;6.80;100.00;103146.34;5053529;28;20029;-69
2023/02/04 05:13:28;;;;;;;30.95;4.57;;;;;;;6.82;100.00;103146.44;5052417;28;20108;-69
2023/02/04 05:15:53;;;;;;;38.08;4.53;;;;;;;6.89;100.00;103148.69;5055668;28;20052;-69
2023/02/04 05:18:18;;;;;;;38.90;4.38;;;;;;;6.97;100.00;103150.09;5055226;28;20025;-67
2023/02/04 05:20:44;;;;;;;40.22;5.20;;;;;;;7.01;100.00;103141.69;5054746;28;20044;-70
2023/02/04 05:23:09;;;;;;;39.65;4.35;;;;;;;7.00;100.00;103142.50;5057048;28;20029;-68
2023/02/04 05:25:35;;;;;;;28.83;3.85;;;;;;;6.99;100.00;103153.75;5068707;28;20039;-69
2023/02/04 05:28:00;;;;;;;42.95;5.25;;;;;;;6.98;100.00;103148.44;5056128;28;20032;-69
2023/02/04 05:30:25;;;;;;;24.23;4.05;;;;;;;7.05;100.00;103143.72;5051160;28;20074;-69
2023/02/04 05:32:51;;;;;;;39.33;4.93;;;;;;;7.08;100.00;103149.16;5051992;28;20074;-70
2023/02/04 05:35:16;;;;;;;36.95;4.50;;;;;;;7.12;100.00;103149.34;5040609;28;20497;-70
2023/02/04 05:37:41;;;;;;;39.00;5.95;;;;;;;7.13;100.00;103149.47;5055701;28;20047;-70
2023/02/04 05:40:07;;;;;;;40.03;4.25;;;;;;;7.14;100.00;103145.16;5050333;28;20476;-69
2023/02/04 05:42:33;;;;;;;38.58;6.50;;;;;;;7.16;100.00;103157.53;5054693;28;20115;-71
2023/02/04 05:44:58;;;;;;;39.05;5.03;;;;;;;7.12;100.00;103154.59;5048042;28;20029;-70
2023/02/04 05:47:23;;;;;;;31.33;3.92;;;;;;;7.13;100.00;103154.69;5046850;28;20024;-68
2023/02/04 05:49:49;;;;;;;39.47;5.70;;;;;;;7.16;100.00;103154.00;5057447;28;20024;-69
2023/02/04 05:52:14;;;;;;;33.13;4.55;;;;;;;7.08;100.00;103159.63;5054471;28;20512;-69
2023/02/04 05:54:39;;;;;;;29.00;3.50;;;;;;;7.11;100.00;103155.38;5052026;28;20029;-68
2023/02/04 05:57:05;;;;;;;32.00;4.63;;;;;;;7.10;100.00;103154.50;5054100;28;20480;-68
2023/02/04 05:59:30;;;;;;;40.10;5.03;;;;;;;7.13;100.00;103161.66;5054260;28;20067;-68
2023/02/04 06:01:56;;;;;;;32.08;4.70;;;;;;;7.13;100.00;103164.28;5053267;28;20044;-69
2023/02/04 06:04:21;;;;;;;42.92;5.10;;;;;;;7.15;100.00;103166.19;5050117;28;20049;-70
2023/02/04 06:06:46;;;;;;;42.70;3.75;;;;;;;7.17;100.00;103168.91;5056670;28;20551;-69
2023/02/04 06:09:12;;;;;;;41.85;5.00;;;;;;;7.17;100.00;103168.91;5054487;28;20029;-69
2023/02/04 06:11:37;;;;;;;35.13;4.45;;;;;;;7.17;100.00;103176.75;5051341;28;20037;-70
2023/02/04 06:14:03;;;;;;;40.40;4.15;;;;;;;7.19;100.00;103176.06;5046630;28;20108;-69
2023/02/04 06:16:28;;;;;;;38.38;5.05;;;;;;;7.21;100.00;103176.16;5052298;28;20020;-69
2023/02/04 06:18:53;;;;;;;43.55;4.75;;;;;;;7.21;100.00;103189.25;5053516;28;20036;-70
2023/02/04 06:21:19;;;;;;;35.40;4.53;;;;;;;7.20;100.00;103193.59;5053168;28;20016;-69
2023/02/04 06:23:44;;;;;;;23.50;3.65;;;;;;;7.20;100.00;103195.28;5053166;28;20028;-69
2023/02/04 06:26:10;;;;;;;42.45;5.45;;;;;;;7.20;100.00;103195.28;5066158;28;20120;-70
2023/02/04 06:28:35;;;;;;;34.97;5.18;;;;;;;7.20;100.00;103193.59;5052606;28;20037;-68
2023/02/04 06:31:00;;;;;;;37.28;4.57;;;;;;;7.21;100.00;103202.34;5045564;28;20037;-69
2023/02/04 06:33:26;;;;;;;36.72;4.72;;;;;;;7.20;100.00;103200.53;5043814;28;20021;-71
2023/02/04 06:35:51;;;;;;;30.38;4.32;;;;;;;7.19;100.00;103204.88;5050721;28;20380;-70
2023/02/04 06:38:18;;;;;;;30.25;4.15;;;;;;;7.19;100.00;103201.31;5060033;28;20035;-69
2023/02/04 06:40:43;;;;;;;38.03;4.63;;;;;;;7.19;100.00;103198.72;5046267;28;20043;-69
2023/02/04 06:43:09;;;;;;;34.33;5.18;;;;;;;7.19;100.00;103203.94;5053664;28;20033;-69
2023/02/04 06:45:34;;;;;;;28.15;4.05;;;;;;;7.18;100.00;103207.41;5054447;28;20471;-68
2023/02/04 06:48:00;;;;;;;30.95;5.28;;;;;;;7.17;100.00;103205.56;5074183;28;20036;-69
2023/02/04 06:50:26;;;;;;;20.85;4.43;;;;;;;7.17;100.00;103210.81;5061301;28;20075;-69
2023/02/04 06:52:51;;;;;;;35.53;4.85;;;;;;;7.17;100.00;103213.44;5049819;28;20040;-70
2023/02/04 06:55:17;;;;;;;26.05;4.35;;;;;;;7.17;100.00;103226.50;5048977;28;20461;-70
2023/02/04 06:57:42;;;;;;;32.25;4.88;;;;;;;7.17;100.00;103221.28;5053560;28;20037;-68
2023/02/04 07:00:10;;;;;;;28.98;5.90;;;;;;;7.16;100.00;103224.69;5045566;28;20380;-69
2023/02/04 07:02:38;;;;;;;44.72;10.38;;;;;;;7.15;100.00;103222.88;5048259;28;20036;-70
2023/02/04 07:05:03;;;;;;;42.55;6.45;;;;;;;7.14;100.00;103221.06;5048574;28;20547;-69
2023/02/04 07:07:29;;;;;;;35.45;6.07;;;;;;;7.15;100.00;103228.09;5048176;28;20132;-69
2023/02/04 07:09:54;;;;;;;38.50;5.60;;;;;;;7.15;100.00;103226.41;5057936;28;20033;-69
2023/02/04 07:12:19;;;;;;;38.75;5.10;;;;;;;7.17;100.00;103226.50;5046717;28;20029;-69
2023/02/04 07:14:45;;;;;;;31.13;4.95;;;;;;;7.18;100.00;103229.22;5052682;28;20469;-69
2023/02/04 07:17:10;;;;;;;32.67;6.03;;;;;;;7.18;100.00;103225.72;5051996;28;20564;-71
2023/02/04 07:19:36;;;;;;;36.95;5.03;;;;;;;7.17;100.00;103216.94;5051115;28;20032;-70
2023/02/04 07:22:03;;;;;;;26.30;6.07;;;;;;;7.18;100.00;103224.00;5050263;28;20124;-71
2023/02/04 07:24:28;;;;;;;34.20;4.97;;;;;;;7.19;100.00;103219.66;5053252;28;20499;-69
2023/02/04 07:26:53;;;;;;;42.70;5.68;;;;;;;7.20;100.00;103226.72;5053315;28;20032;-69
2023/02/04 07:29:19;;;;;;;31.75;5.60;;;;;;;7.20;100.00;103226.72;5050822;28;20028;-69
2023/02/04 07:31:45;;;;;;;44.17;6.15;;;;;;;7.21;100.00;103231.16;5047703;28;20537;-69
2023/02/04 07:34:13;;;;;;;35.67;6.07;;;;;;;7.23;100.00;103225.22;5053034;28;20020;-69
2023/02/04 07:36:39;;;;;;;45.42;6.35;;;;;;;7.27;100.00;103231.59;5051610;28;20025;-69
2023/02/04 07:39:05;;;;;;;61.03;6.38;;;;;;;7.32;100.00;103238.03;5062101;28;20028;-69
2023/02/04 07:41:31;;;;;;;43.38;6.30;;;;;;;7.36;100.00;103241.78;5056860;28;20031;-69
2023/02/04 07:43:56;;;;;;;35.05;6.25;;;;;;;7.40;100.00;103242.09;5054202;28;20120;-70
2023/02/04 07:46:22;;;;;;;49.85;7.30;;;;;;;7.42;100.00;103240.50;5041812;28;20431;-69
2023/02/04 07:48:47;;;;;;;36.58;5.28;;;;;;;7.46;100.00;103245.94;5051765;28;20028;-69
2023/02/04 07:51:12;;;;;;;40.33;5.68;;;;;;;7.46;100.00;103253.78;5052684;28;20036;-69
2023/02/04 07:53:37;;;;;;;42.03;6.82;;;;;;;7.46;100.00;103253.78;5055689;28;20028;-69
2023/02/04 07:56:03;;;;;;;38.80;6.00;;;;;;;7.49;100.00;103256.59;5050946;28;20035;-70
2023/02/04 07:58:28;;;;;;;28.95;6.00;;;;;;;7.51;100.00;103257.63;5051235;28;20373;-68
2023/02/04 08:00:54;;;;;;;56.63;6.65;;;;;;;7.51;100.00;103249.78;5048971;28;20036;-71
2023/02/04 08:03:19;;;;;;;50.30;6.53;;;;;;;7.54;100.00;103260.47;5045334;28;20037;-70
2023/02/04 08:05:44;;;;;;;55.10;6.10;;;;;;;7.53;100.00;103263.91;5051213;28;20033;-69
2023/02/04 08:08:10;;;;;;;43.83;7.50;;;;;;;7.53;100.00;103264.81;5051746;28;20420;-69
2023/02/04 08:10:35;;;;;;;42.53;5.80;;;;;;;7.53;100.00;103267.41;5046612;28;20021;-69
2023/02/04 08:13:00;;;;;;;37.60;7.28;;;;;;;7.56;100.00;103270.25;5048729;28;20067;-68
2023/02/04 08:15:26;;;;;;;47.88;6.47;;;;;;;7.57;100.00;103263.31;5049708;28;20487;-79
2023/02/04 08:17:51;;;;;;;40.65;5.97;;;;;;;7.60;100.00;103272.25;5047178;28;20496;-68
2023/02/04 08:20:17;;;;;;;52.08;6.93;;;;;;;7.63;100.00;103279.44;5054397;28;20067;-69
2023/02/04 08:22:42;;;;;;;50.78;6.43;;;;;;;7.70;100.00;103278.13;5049817;28;20461;-68
2023/02/04 08:25:10;;;;;;;37.67;7.50;;;;;;;7.69;100.00;103277.25;5048469;28;20033;-70
2023/02/04 08:27:35;;;;;;;42.25;6.82;;;;;;;7.71;100.00;103285.19;5060140;28;20028;-69
2023/02/04 08:30:01;;;;;;;36.60;6.40;;;;;;;7.74;100.00;103291.53;5048479;28;20033;-68
2023/02/04 08:32:28;;;;;;;30.70;6.82;;;;;;;7.76;100.00;103292.56;5054993;28;20509;-69
2023/02/04 08:34:53;;;;;;;53.13;7.35;;;;;;;7.79;100.00;103299.72;5051296;28;20423;-70
2023/02/04 08:37:18;;;;;;;37.33;7.65;;;;;;;7.81;100.00;103303.34;5045409;28;20025;-70
2023/02/04 08:39:45;;;;;;;37.53;6.45;;;;;;;7.82;100.00;103305.16;5038431;28;20116;-70
2023/02/04 08:42:11;;;;;;;36.75;6.55;;;;;;;7.86;100.00;103311.53;5040681;28;20469;-68
2023/02/04 08:44:36;;;;;;;45.65;6.45;;;;;;;7.90;100.00;103319.69;5048654;28;20028;-70
2023/02/04 08:47:02;;;;;;;32.42;6.28;;;;;;;7.92;100.00;103325.97;5046978;28;20029;-71
2023/02/04 08:49:28;;;;;;;37.58;6.40;;;;;;;7.92;100.00;103319.78;5057283;28;20021;-69
2023/02/04 08:51:53;;;;;;;40.10;6.50;;;;;;;7.87;100.00;103315.97;5049101;28;20071;-71
2023/02/04 08:54:19;;;;;;;42.72;6.72;;;;;;;7.88;100.00;103313.47;5048278;28;20030;-69
2023/02/04 08:56:44;;;;;;;48.35;7.50;;;;;;;7.91;100.00;103318.00;5051131;28;20025;-68
2023/02/04 08:59:09;;;;;;;48.90;7.18;;;;;;;7.92;100.00;103314.56;5050530;28;20021;-68
2023/02/04 09:01:35;;;;;;;40.85;7.25;;;;;;;7.94;100.00;103320.81;5031537;28;20474;-69
2023/02/04 09:04:00;;;;;;;38.10;7.63;;;;;;;7.90;100.00;103319.69;5038186;28;20430;-69
2023/02/04 09:06:25;;;;;;;28.85;7.03;;;;;;;7.92;100.00;103322.41;5047343;28;20533;-69
2023/02/04 09:08:51;;;;;;;37.20;7.20;;;;;;;7.98;100.00;103314.97;5050810;28;20053;-67
2023/02/04 09:11:16;;;;;;;47.05;8.98;;;;;;;8.03;100.00;103323.13;5042540;28;20040;-69
2023/02/04 09:13:41;;;;;;;53.70;9.77;;;;;;;8.06;100.00;103326.00;5047040;28;20043;-69
2023/02/04 09:16:07;;;;;;;54.50;10.63;;;;;;;8.10;100.00;103334.16;5050097;28;20025;-69
2023/02/04 09:18:32;;;;;;;42.88;9.88;;;;;;;8.16;100.00;103332.75;5041634;28;20028;-70
2023/02/04 09:20:58;;;;;;;45.72;10.40;;;;;;;8.20;100.00;103334.78;5048464;28;20651;-70
2023/02/04 09:23:23;;;;;;;44.60;9.73;;;;;;;8.25;100.00;103342.13;5049346;28;20059;-71
2023/02/04 09:25:49;;;;;;;51.88;9.93;;;;;;;8.31;100.00;103338.09;5047292;28;20131;-70
2023/02/04 09:28:15;;;;;;;37.63;7.57;;;;;;;8.36;100.00;103345.47;5044071;28;20029;-70
2023/02/04 09:30:42;;;;;;;36.55;8.77;;;;;;;8.39;100.00;103344.78;5052903;28;20028;-69
2023/02/04 09:33:10;;;;;;;33.67;7.68;;;;;;;8.42;100.00;103356.38;5047843;28;20108;-70
2023/02/04 09:35:36;;;;;;;39.40;7.07;;;;;;;8.41;100.00;103344.06;5048063;28;20475;-69
2023/02/04 09:38:01;;;;;;;36.67;8.13;;;;;;;8.48;100.00;103352.34;5058596;28;20056;-70
2023/02/04 09:40:29;;;;;;;27.98;8.18;;;;;;;8.52;100.00;103349.13;5057139;28;20115;-69
2023/02/04 09:42:57;;;;;;;35.58;7.47;;;;;;;8.54;100.00;103353.66;5057656;28;20032;-70
2023/02/04 09:45:27;;;;;;;32.72;7.45;;;;;;;8.52;100.00;103349.13;5054363;28;20532;-70
2023/02/04 09:47:55;;;;;;;42.22;7.88;;;;;;;8.57;100.00;103352.97;5044369;28;20033;-70
2023/02/04 09:50:23;;;;;;;33.53;7.20;;;;;;;8.64;100.00;103359.53;5053847;28;20503;-70
2023/02/04 09:52:52;;;;;;;32.22;8.02;;;;;;;8.59;100.00;103360.13;5051248;28;20048;-71
2023/02/04 09:55:23;;;;;;;33.28;7.97;;;;;;;8.59;100.00;103359.25;5053626;28;20472;-70
2023/02/04 09:57:48;;;;;;;36.25;8.27;;;;;;;8.59;100.00;103364.50;5053671;28;20029;-71
2023/02/04 10:00:17;;;;;;;32.22;7.78;;;;;;;8.60;100.00;103364.56;5051859;28;20033;-71
2023/02/04 10:02:43;;;;;;;36.30;8.65;;;;;;;8.65;100.00;103372.75;5044461;28;20029;-71
2023/02/04 10:05:17;;;;;;;37.63;7.95;;;;;;;8.63;100.00;103369.13;5050694;28;20420;-70
2023/02/04 10:07:44;;;;;;;39.45;8.45;;;;;;;8.72;100.00;103366.19;5049001;28;20055;-70
2023/02/04 10:10:40;;;;;;;32.40;8.25;;;;;;;8.68;100.00;103379.91;5052409;28;20079;-69
2023/02/04 10:13:13;;;;;;;38.13;7.40;;;;;;;8.62;100.00;103382.16;5052638;28;20025;-70
2023/02/04 10:15:38;;;;;;;31.80;6.65;;;;;;;8.76;100.00;103383.94;5051864;28;20540;-69
2023/02/04 10:18:06;;;;;;;33.83;7.65;;;;;;;8.86;100.00;103388.09;5052394;28;20104;-69
2023/02/04 10:20:32;;;;;;;24.55;4.50;;;;;;;8.77;100.00;103384.03;5052180;28;20021;-70
2023/02/04 10:22:57;;;;;;;35.65;6.43;;;;;;;8.78;100.00;103393.72;5048728;28;20032;-69
2023/02/04 10:25:24;;;;;;;21.73;5.07;;;;;;;8.93;100.00;103385.94;5053621;28;20156;-70
2023/02/04 10:27:58;;;;;;;18.08;4.43;;;;;;;9.08;100.00;103387.75;5049909;28;20055;-69
2023/02/04 10:30:29;;;;;;;22.40;4.65;;;;;;;9.05;100.00;103391.09;5048031;28;20029;-70
2023/02/04 10:32:55;;;;;;;26.85;4.72;;;;;;;9.09;100.00;103392.19;5054255;28;20021;-70
2023/02/04 10:35:21;;;;;;;24.98;4.40;;;;;;;9.11;100.00;103390.56;5048188;28;20502;-69
2023/02/04 10:37:47;;;;;;;26.95;5.53;;;;;;;9.10;100.00;103387.03;5052058;28;20029;-69
2023/02/04 10:40:30;;;;;;;36.58;5.22;;;;;;;9.24;100.00;103387.91;5046776;28;20100;-71
2023/02/04 10:42:56;;;;;;;16.10;4.47;;;;;;;9.20;100.00;103390.25;5048312;28;20115;-68
2023/02/04 10:45:25;;;;;;;26.80;5.53;;;;;;;9.34;100.00;103399.00;5055738;28;20136;-68
2023/02/04 10:47:52;;;;;;;26.85;5.10;;;;;;;9.33;100.00;103398.06;5054176;28;20370;-69
2023/02/04 10:50:20;;;;;;;27.88;4.72;;;;;;;9.36;100.00;103394.72;5054211;28;20024;-68
2023/02/04 10:52:54;;;;;;;20.13;5.15;;;;;;;9.49;100.00;103399.06;5052237;28;20017;-68
2023/02/04 10:55:21;;;;;;;24.20;3.50;;;;;;;9.41;100.00;103396.84;5057871;28;20021;-68
2023/02/04 10:57:49;;;;;;;19.33;3.67;;;;;;;9.36;100.00;103397.34;5052852;28;20036;-69
2023/02/04 11:00:18;;;;;;;20.10;3.97;;;;;;;9.36;100.00;103393.03;5054074;28;20025;-68
2023/02/04 11:02:49;;;;;;;24.88;3.47;;;;;;;9.42;100.00;103393.41;5058299;28;20036;-68
2023/02/04 11:05:20;;;;;;;23.42;4.47;;;;;;;9.40;100.00;103392.41;5033932;28;20441;-66
2023/02/04 11:07:47;;;;;;;17.10;4.65;;;;;;;9.45;100.00;103390.97;5046723;28;20059;-69
2023/02/04 11:10:18;;;;;;;14.85;4.13;;;;;;;9.55;100.00;103391.53;5051849;28;20758;-68
2023/02/04 11:12:46;;;;;;;21.67;4.07;;;;;;;9.44;100.00;103386.53;5052162;28;20028;-67